CYYJPHKO

Guest
Details From CYYJ - Victoria Intl
To PHKO - Kona Intl At Keahole
Flight Number -
Tags Generated
Created
Modified
Stats Distance 2,341 nm / 4,335 km
Max Altitude 0 ft / 0 m
Waypoints 3
Social Downloads 0
Likes 0
Share VATSIM

Download

Looking for another format? Having issues loading an existing format? Contact us
Advertisement - Login to hide

Notes

Generated

Route

CYYJ R1877 PHKO

ID Type Via Altitude Latitude Longitude Leg Dist Tot Dist Heading (true) Name
O CYYJ APT - 0 ft / 0 m 48.65250˚ -123.43278˚ - 0 nm - Victoria Intl
R1877 FIX - 0 ft / 0 m 19.75386˚ -156.04429˚ 2340 nm 2340 nm 234° / 214° -
O PHKO APT - 0 ft / 0 m 19.75386˚ -156.04429˚ 0 nm 2340 nm 0° / 180° -

Altitude Profile

Advertisement - Login to hide

Weather


0- 5 10 15 20 25 30 35+ Temperature / ° C

Clouds and Precipitation
Forecast for 2018-05-23 12:00 UTC. Updated 2 hours ago

Ground ~20,000 ft ~40,000 ft Winds

CYYJ

Details ICAO CYYJ (YYJ)
Name Victoria Intl
Region Canada
Timezone America/Vancouver (UTC-7.0)
Stats Elevation 63 ft / 19 m (AMSL)
Location 48.647331° -123.426547°
Runways 3
Magnetic Variation 16.105° E

METAR

CYYJ 231000Z VRB02KT 30SM SKC 12/10 A2981 RMK SLP095

Decode

TAF

TAF CYYJ 230539Z 2306/2406 VRB03KT P6SM FEW250 BECMG 2318/2320 11008KT FM240000 11010KT P6SM SCT100 RMK NXT FCST BY 231200Z

Decode

Departure Runways

ID Width Length Bearing (true) Bearing (mag) Surface Threshold Offset Overrun Length
02 200 ft / 61 m 5,137 ft / 1,566 m 44.74° 28.64° Asphalt 1,421 ft / 433 m 0 ft / 0 m
09 200 ft / 61 m 6,982 ft / 2,128 m 105.22° 89.12° Asphalt 0 ft / 0 m 0 ft / 0 m
13 200 ft / 61 m 4,981 ft / 1,518 m 151.05° 134.95° Asphalt 427 ft / 130 m 0 ft / 0 m
20 200 ft / 61 m 5,137 ft / 1,566 m 224.75° 208.65° Asphalt 0 ft / 0 m 0 ft / 0 m
27 200 ft / 61 m 6,982 ft / 2,128 m 285.24° 269.14° Asphalt 0 ft / 0 m 0 ft / 0 m
31 200 ft / 61 m 4,981 ft / 1,518 m 331.05° 314.95° Asphalt 0 ft / 0 m 0 ft / 0 m

PHKO

Details ICAO PHKO (KOA)
Name Kona Intl At Keahole
Region USA (Hawaii)
Timezone Pacific/Honolulu (UTC-10.0)
Stats Elevation 45 ft / 14 m (AMSL)
Location 19.739343° -156.045756°
Runways 1
Magnetic Variation 9.423° E

METAR

PHKO 230953Z AUTO 11005KT 10SM SCT050 25/18 A3002

Decode

TAF

PHKO 230539Z 2306/2406 12006KT P6SM SCT025 BKN070 FM231200 05005KT P6SM SCT025 FM232100 21011KT P6SM SCT040 BKN070

Decode

Destination Runways

ID Width Length Bearing (true) Bearing (mag) Surface Threshold Offset Overrun Length
17 150 ft / 46 m 11,461 ft / 3,493 m 184.77° 175.35° Asphalt 407 ft / 124 m 0 ft / 0 m
35 150 ft / 46 m 11,461 ft / 3,493 m 4.77° 355.35° Asphalt 0 ft / 0 m 404 ft / 123 m

Approach Navaids

Runway Type Ident Frequency Range Bearing (true) Bearing (mag) Slope Elevation
17 Localiser IKOA 109.70 MHz 18 nm / 33 km 184.77° 175.35° - 43 ft / 13 m (AMSL)
17 Glidescope IKOA 109.70 MHz 10 nm / 19 km 184.77° 175.35° 3.00° 43 ft / 13 m (AMSL)
17 DME IKOA 109.70 MHz 18 nm / 33 km - - - 43 ft / 13 m (AMSL)